createdAt,value
2022-08-09T00:02:52.187Z,0.76
2022-08-09T00:07:52.298Z,0.79
2022-08-09T00:12:52.895Z,0.83
2022-08-09T00:18:04.793Z,0.86
2022-08-09T00:22:52.222Z,0.84
2022-08-09T00:27:52.216Z,0.96
2022-08-09T00:32:52.225Z,0.9
2022-08-09T00:37:52.221Z,0.91
2022-08-09T00:44:09.588Z,0.87
2022-08-09T00:47:52.231Z,0.85
2022-08-09T00:52:52.231Z,0.86
2022-08-09T00:57:52.242Z,0.85
2022-08-09T01:02:52.201Z,0.89
2022-08-09T01:07:59.829Z,0.95
2022-08-09T01:12:52.672Z,0.99
2022-08-09T01:17:52.211Z,0.92
2022-08-09T01:22:55.003Z,0.98
2022-08-09T01:27:52.251Z,1.04
2022-08-09T01:32:52.252Z,1.02
2022-08-09T01:38:06.222Z,0.94
2022-08-09T01:42:52.231Z,1
2022-08-09T01:47:52.240Z,0.97
2022-08-09T01:52:52.232Z,1.01
2022-08-09T01:57:53.045Z,1.1
2022-08-09T02:02:52.244Z,1.11
2022-08-09T02:08:36.199Z,1.24
2022-08-09T02:12:52.276Z,1.28
2022-08-09T02:18:00.390Z,1.29
2022-08-09T02:22:52.280Z,1.26
2022-08-09T02:32:52.248Z,1.27
2022-08-09T02:37:52.251Z,1.26
2022-08-09T02:42:52.290Z,1.26
2022-08-09T02:47:57.871Z,1.44
2022-08-09T02:52:55.239Z,1.33
2022-08-09T02:58:00.854Z,1.38
2022-08-09T03:02:58.194Z,1.29
2022-08-09T03:07:55.279Z,1.35
2022-08-09T03:12:52.360Z,1.41
2022-08-09T03:17:53.960Z,1.39
2022-08-09T03:22:57.067Z,1.39
2022-08-09T03:27:52.301Z,1.36
2022-08-09T03:32:52.300Z,1.37
2022-08-09T03:37:54.903Z,1.35
2022-08-09T03:42:52.315Z,1.24
2022-08-09T03:47:52.286Z,1.29
2022-08-09T03:52:52.288Z,1.26
2022-08-09T03:57:53.774Z,1.23
2022-08-09T04:02:52.585Z,1.23
2022-08-09T04:07:56.725Z,1.27
2022-08-09T04:12:52.314Z,1.28
2022-08-09T04:17:52.330Z,1.27
2022-08-09T04:22:52.340Z,1.39
2022-08-09T04:27:52.329Z,1.34
2022-08-09T04:32:52.344Z,1.54
2022-08-09T04:37:52.304Z,1.53
2022-08-09T04:42:52.316Z,1.48
2022-08-09T04:47:59.631Z,1.33
2022-08-09T04:52:52.347Z,1.23
2022-08-09T04:57:54.585Z,1.2
2022-08-09T05:02:52.769Z,1.12
2022-08-09T05:07:53.293Z,1.1
2022-08-09T05:12:52.326Z,1.03
2022-08-09T05:18:37.174Z,1.13
2022-08-09T05:23:51.347Z,1.14
2022-08-09T05:27:52.364Z,1.21
2022-08-09T05:32:53.201Z,1.03
2022-08-09T05:37:52.396Z,1.15
2022-08-09T05:42:52.345Z,1.12
2022-08-09T05:47:53.685Z,1.37
2022-08-09T05:52:53.377Z,1.06
2022-08-09T05:57:56.303Z,1.03
2022-08-09T06:02:54.470Z,1.15
2022-08-09T06:08:05.151Z,1.02
2022-08-09T06:13:02.849Z,1.21
2022-08-09T06:17:52.364Z,1.2
2022-08-09T06:22:52.396Z,1.15
2022-08-09T06:27:52.402Z,1.13
2022-08-09T06:32:52.992Z,1.14
2022-08-09T06:37:53.443Z,1.15
2022-08-09T06:42:52.380Z,1.19
2022-08-09T06:47:57.847Z,1.32
2022-08-09T06:52:52.372Z,1.02
2022-08-09T06:58:02.265Z,1.2
2022-08-09T07:02:52.432Z,1.35
2022-08-09T07:07:59.315Z,1.43
2022-08-09T07:12:57.305Z,1.37
2022-08-09T07:17:52.766Z,1.48
2022-08-09T07:22:52.853Z,1.04
2022-08-09T07:27:53.058Z,1.2
2022-08-09T07:32:52.436Z,1.16
2022-08-09T07:37:52.413Z,1.41
2022-08-09T07:42:54.305Z,1.51
2022-08-09T07:48:00.970Z,1.48
2022-08-09T07:52:52.449Z,1.13
2022-08-09T07:57:52.426Z,1.44
2022-08-09T08:02:52.459Z,1.51
2022-08-09T08:08:06.447Z,1.65
2022-08-09T08:12:52.457Z,1.75
2022-08-09T08:17:55.450Z,1.4
2022-08-09T08:22:52.430Z,1.52
2022-08-09T08:27:52.431Z,1.44
2022-08-09T08:32:53.774Z,1.23
2022-08-09T08:37:59.745Z,0.97
2022-08-09T08:42:52.471Z,0.97
2022-08-09T08:47:52.482Z,0.92
2022-08-09T08:52:58.611Z,0.94
2022-08-09T08:57:56.242Z,0.93
2022-08-09T09:02:53.365Z,0.89
2022-08-09T09:07:52.477Z,0.83
2022-08-09T09:12:52.465Z,0.91
2022-08-09T09:17:52.849Z,0.83
2022-08-09T09:22:52.495Z,0.68
2022-08-09T09:28:04.934Z,0.71
2022-08-09T09:32:52.477Z,0.72
2022-08-09T09:37:52.503Z,0.84
2022-08-09T09:42:52.470Z,0.71
2022-08-09T09:47:56.840Z,0.72
2022-08-09T09:52:52.958Z,0.71
2022-08-09T09:58:01.967Z,0.66
2022-08-09T10:02:52.525Z,0.63
2022-08-09T10:08:01.275Z,0.59
2022-08-09T10:12:52.521Z,0.48
2022-08-09T10:17:55.412Z,0.58
2022-08-09T10:22:55.055Z,0.51
2022-08-09T10:27:56.442Z,0.47
2022-08-09T10:32:52.640Z,0.49
2022-08-09T10:37:52.508Z,0.47
2022-08-09T10:42:52.924Z,0.49
2022-08-09T10:48:12.947Z,0.43
2022-08-09T10:52:52.555Z,0.43
2022-08-09T10:57:55.582Z,0.51
2022-08-09T11:03:03.757Z,0.48
2022-08-09T11:07:56.766Z,0.56
2022-08-09T11:12:52.565Z,0.64
2022-08-09T11:17:53.229Z,0.57
2022-08-09T11:22:55.704Z,0.54
2022-08-09T11:28:03.288Z,0.5
2022-08-09T11:32:52.573Z,0.44
2022-08-09T11:37:52.541Z,0.44
2022-08-09T11:42:52.551Z,0.5
2022-08-09T11:47:52.551Z,0.43
2022-08-09T11:53:01.044Z,0.49
2022-08-09T11:58:01.115Z,0.54
2022-08-09T12:02:53.368Z,0.54
2022-08-09T12:07:54.697Z,0.51
2022-08-09T12:12:52.852Z,0.52
2022-08-09T12:17:53.469Z,0.58
2022-08-09T12:22:52.595Z,0.52
2022-08-09T12:29:01.072Z,0.58
2022-08-09T12:32:52.574Z,0.57
2022-08-09T12:37:53.765Z,0.58
2022-08-09T12:42:52.586Z,0.47
2022-08-09T12:47:52.649Z,0.54
2022-08-09T12:53:08.369Z,0.52
2022-08-09T12:57:52.622Z,0.45
2022-08-09T13:02:53.382Z,0.49
2022-08-09T13:07:52.636Z,0.43
2022-08-09T13:12:59.922Z,0.46
2022-08-09T13:18:03.010Z,3.06
2022-08-09T13:23:02.289Z,2.53
2022-08-09T13:27:55.539Z,1.1
2022-08-09T13:32:52.609Z,0.48
2022-08-09T13:37:53.007Z,0.42
2022-08-09T13:42:52.704Z,0.51
2022-08-09T13:47:54.658Z,0.49
2022-08-09T13:52:52.619Z,0.41
2022-08-09T13:57:53.164Z,0.37
2022-08-09T14:03:02.581Z,0.43
2022-08-09T14:07:52.667Z,0.42
2022-08-09T14:12:52.648Z,0.42
2022-08-09T14:18:06.688Z,0.42
2022-08-09T14:22:52.643Z,0.42
2022-08-09T14:27:57.312Z,0.4
2022-08-09T14:32:52.680Z,0.37
2022-08-09T14:38:02.228Z,0.39
2022-08-09T14:42:52.651Z,0.49
2022-08-09T14:47:57.735Z,0.38
2022-08-09T14:52:52.680Z,0.38
2022-08-09T14:57:52.665Z,0.39
2022-08-09T15:02:52.702Z,0.39
2022-08-09T15:07:54.611Z,0.46
2022-08-09T15:12:52.698Z,0.49
2022-08-09T15:17:53.190Z,0.45
2022-08-09T15:22:59.920Z,0.49
2022-08-09T15:27:54.857Z,0.49
2022-08-09T15:32:52.711Z,0.48
2022-08-09T15:37:57.512Z,0.49
2022-08-09T15:42:52.708Z,0.53
2022-08-09T15:48:03.216Z,0.55
2022-08-09T15:52:54.582Z,0.52
2022-08-09T15:57:52.715Z,0.56
2022-08-09T16:02:53.880Z,0.56
2022-08-09T16:07:52.701Z,0.57
2022-08-09T16:12:52.702Z,0.59
2022-08-09T16:22:52.746Z,0.58
2022-08-09T16:27:53.048Z,0.58
2022-08-09T16:32:53.242Z,0.62
2022-08-09T16:37:56.245Z,0.62
2022-08-09T16:42:52.777Z,0.61
2022-08-09T16:48:37.723Z,0.66
2022-08-09T16:52:52.731Z,0.65
2022-08-09T16:58:08.364Z,0.66
2022-08-09T17:02:52.768Z,0.72
2022-08-09T17:08:42.655Z,0.85
2022-08-09T17:12:52.773Z,0.73
2022-08-09T17:17:52.775Z,0.66
2022-08-09T17:22:52.891Z,0.58
2022-08-09T17:27:53.756Z,0.79
2022-08-09T17:32:52.751Z,1.28
2022-08-09T17:38:02.069Z,1.13
2022-08-09T17:42:55.436Z,0.85
2022-08-09T17:47:55.080Z,0.79
2022-08-09T17:52:52.787Z,0.8
2022-08-09T17:58:04.095Z,1.17
2022-08-09T18:02:58.310Z,1.13
2022-08-09T18:07:52.830Z,1.14
2022-08-09T18:13:40.309Z,1.15
2022-08-09T18:18:01.556Z,1.01
2022-08-09T18:22:52.811Z,0.91
2022-08-09T18:28:04.194Z,0.89
2022-08-09T18:32:54.179Z,1.01
2022-08-09T18:37:54.773Z,1.15
2022-08-09T18:42:52.784Z,1.21
2022-08-09T18:47:52.820Z,1.14
2022-08-09T18:52:52.796Z,1.24
2022-08-09T18:57:52.825Z,1.48
2022-08-09T19:02:53.868Z,1.29
2022-08-09T19:07:59.473Z,1.12
2022-08-09T19:13:01.796Z,1.2
2022-08-09T19:17:54.709Z,1.24
2022-08-09T19:22:54.337Z,1.36
2022-08-09T19:27:52.809Z,1.37
2022-08-09T19:32:53.102Z,1.37
2022-08-09T19:37:54.702Z,1.3
2022-08-09T19:42:52.842Z,1.26
2022-08-09T19:47:52.845Z,1.27
2022-08-09T19:52:52.850Z,1.42
2022-08-09T19:57:52.846Z,1.43
2022-08-09T20:04:14.424Z,1.72
2022-08-09T20:07:57.329Z,1.67
2022-08-09T20:12:52.868Z,1.48
2022-08-09T20:17:53.913Z,1.42
2022-08-09T20:22:56.253Z,1.36
2022-08-09T20:27:52.840Z,1.34
2022-08-09T20:32:52.992Z,1.28
2022-08-09T20:38:19.214Z,1.3
2022-08-09T20:42:53.520Z,1.31
2022-08-09T20:47:52.871Z,1.41
2022-08-09T20:52:52.885Z,1.27
2022-08-09T20:58:05.751Z,1.48
2022-08-09T21:02:52.959Z,1.56
2022-08-09T21:07:55.241Z,1.73
2022-08-09T21:18:12.047Z,1.94
2022-08-09T21:22:54.346Z,2.14
2022-08-09T21:27:53.290Z,1.95
2022-08-09T21:32:52.898Z,2.48
2022-08-09T21:37:58.931Z,3.55
2022-08-09T21:42:54.235Z,4.8
2022-08-09T21:47:52.903Z,5.34
2022-08-09T21:52:52.867Z,4.75
2022-08-09T21:57:58.701Z,3.51
2022-08-09T22:02:58.024Z,3.65
2022-08-09T22:07:53.239Z,2.53
2022-08-09T22:12:52.946Z,2.36
2022-08-09T22:17:52.926Z,2.61
2022-08-09T22:22:52.884Z,2.53
2022-08-09T22:27:52.924Z,2.29
2022-08-09T22:32:52.933Z,2.22
2022-08-09T22:38:03.517Z,2.28
2022-08-09T22:42:52.903Z,2.54
2022-08-09T22:48:06.579Z,2.65
2022-08-09T22:52:54.761Z,2.86
2022-08-09T22:57:59.312Z,3.07
2022-08-09T23:02:52.910Z,2.71
2022-08-09T23:08:21.560Z,2.95
2022-08-09T23:12:52.958Z,2.89
2022-08-09T23:17:52.916Z,2.89
2022-08-09T23:22:52.951Z,3.21
2022-08-09T23:27:57.561Z,3.01
2022-08-09T23:32:52.928Z,3
2022-08-09T23:37:52.972Z,2.95
2022-08-09T23:42:53.000Z,2.93
2022-08-09T23:47:52.957Z,2.76
2022-08-09T23:52:52.963Z,2.84
2022-08-09T23:58:06.723Z,2.91
